Tuesday, October 21, 2014
12:00 UTC
  |  Log In   |  Register Free
Airport Search:

Fairfield County Airport
(KFDW)

Fairfield County Airport Diagram
No Airport Diagram Available

FAA data valid effective September 18, 2014 - November 13, 2014 (unless otherwise noted).

 
 
 
 
 
 
 
 
 
 
 
 
 
 

Current Aviation Weather for Fairfield County Airport (KFDW)

The most recent METAR observation for KFDW was updated at: 1112
METAR Summary (Translated METAR)
KFDW
211115Z AUTO 27003KT 10SM CLR 12/11 A2996 RMK AO1
KCUB
211053Z AUTO 00000KT 10SM CLR 11/09 A2997 RMK AO2 SLP146 T01110094
(21.5 nm SE from KFDW)
KCAE
211056Z 00000KT 10SM CLR 11/08 A2995 RMK AO2 SLP142 T01060083
(22.6 nm SW from KFDW)
TAF Summary (Translated TAF)
KCUB
(21.5 nm SE from KFDW)
210831Z 2109/2206 VRB03KT P6SM SKC FM211500 28007KT P6SM SKC FM220200 33005KT P6SM SKC
KCAE
(22.6 nm SW from KFDW)
210831Z 2109/2206 VRB03KT P6SM SKC FM211500 28007KT P6SM SKC FM220200 33007KT P6SM SKC
  Airport Weather Conditions for KFDW

 Current Weather at FDW
54° F
Fair
West winds at 3.5 mph
FDW NOAA Radar

Pressure: 29.95 in
Humidity: 94%
Wind: West at 3.5 MPH (3 KT)
Dew Point: 51.8°F
Visibility: 10.00 mi


Airport Weather Forecast for KFDW

Translated METAR and TAF for KFDW
Translated METAR for KFDW (1155 UTC 21 October 2014)
found at http://aviationweather.gov/adds/metars/
 
METAR text: KFDW 211155Z AUTO 26003KT 10SM CLR 11/11 A2996 RMK AO1
Conditions at: KFDW (WINNSBORO , SC, US) observed 1155 UTC 21 October 2014
Temperature: 11.0°C (52°F)
Dewpoint: 11.0°C (52°F) [RH = 100%]
Pressure (altimeter): 29.96 inches Hg (1014.6 mb)
Winds: from the W (260 degrees) at 3 MPH (3 knots; 1.6 m/s)
Visibility: 10 or more miles (16+ km)
Ceiling: at least 12,000 feet AGL
Clouds: sky clear below 12,000 feet AGL
Weather: automated observation with no human augmentation;
there may or may not be significant weather present at this time
Translated TAF for KFDW

There is no translated TAF available for this airport

Find All Airport Services Find A Hotel Find A Rental Car Find A Golf Course Find A Restaurant $100 Hamburger



FBO's on the Field
FBO Company Facility Photos Services Transportation Aviation Fuel Prices: Prices include tax
Catering Weather Repair Courtesy Rental Type 100LL JetA JetA+ MOGAS 8087
 
S & S Aviation Services

This FBO has not yet been rated
FS:Shell
Last Updated: Oct-09
Login to update fuel prices
SS:
Contact S & S Aviation ServicesMore FBO Information
 
Add another FBO Facility Photos Catering Weather Repair Courtesy Rental Type 100LL JetA JetA+ MOGAS 8087
Services Transportation Aviation Fuel Prices: Prices include tax


model-print
model-print
model-print
model-print